KLVJ

Details ICAO KLVJ
Name Pearland Rgnl
Region United States
Timezone America/Chicago (UTC-6.0)
Plans Departing 20
Arriving 5
Stats Elevation 44 ft / 13 m (AMSL)
Location 29.521287° -95.242152°
Runways 1
Magnetic Variation 2.421° E
Sunrise 2017-12-12 13:07:54 UTC / 2017-12-12 07:07:54 Local
Sunset 2017-12-12 23:24:36 UTC / 2017-12-12 17:24:36 Local
Advertisement - Login to hide

Runways

ID Width Length Bearing (true) Bearing (mag) Surface Threshold Offset Overrun Length
14 75 ft / 23 m 4,320 ft / 1,317 m 144.81° 142.39° Asphalt 0 ft / 0 m 0 ft / 0 m
32 75 ft / 23 m 4,320 ft / 1,317 m 324.81° 322.39° Asphalt 0 ft / 0 m 0 ft / 0 m

Map

Weather


0- 5 10 15 20 25 30 35+ Temperature / ° C

Clouds and Precipitation
Forecast for 2017-12-12 12:00 UTC. Updated an hour ago

Ground ~20,000 ft ~40,000 ft Winds

METAR

KLVJ 120953Z AUTO 30003KT 10SM CLR 08/05 A3021 RMK AO2 SLP230 T00830050

TAF

Not found

Frequencies

Recorded 118.52 MHz ASOS
Clearance 124.00 MHz CLNC DEL
Unicom 122.80 MHz CTAF/UNICOM
Approach 134.45 MHz HOUSTON APP/DEP
Warning: Do not use this data for real-world aviation or navigation. No guarantee of current accuracy is given.